Chicago, Illinois
Traffic Map
Current Weather Conditions
Chicago, Illinois
Broken Clouds
Broken Clouds

Feels Like: -5°
Wind Chill: -5° Ceiling: 25000
Heat Index: Visibility: 10mi
Dew Point: -9° Wind: 16mph
Humidity: 50% Direction: 160° (SSE)
Pressure: 30.2in Gusts: 21mph
Raw Report DataKMDW 281753Z 16014G18KT 10SM BKN250 01/M09 A3020 RMK AO2 SLP240 T00061089 10011 21044 58024
Traffic Incident Summary
Active as of:
Severity:
Category:
InformationThere was an issue retrieving the traffic information for this location. Please try a different location or try again shortly.
Advertisements
Track Severe Weather on mobile